createdAt,value
2023-04-29T00:00:20.900Z,101586.06
2023-04-29T00:03:23.576Z,101584.91
2023-04-29T00:06:28.145Z,101594.75
2023-04-29T00:09:30.665Z,101596.22
2023-04-29T00:12:33.442Z,101592.97
2023-04-29T00:15:37.426Z,101592.16
2023-04-29T00:18:39.947Z,101595.25
2023-04-29T00:21:43.851Z,101598.03
2023-04-29T00:24:46.369Z,101600.00
2023-04-29T00:27:48.897Z,101599.19
2023-04-29T00:30:51.697Z,101607.06
2023-04-29T00:33:54.299Z,101607.75
2023-04-29T00:36:58.208Z,101615.97
2023-04-29T00:40:00.774Z,101620.22
2023-04-29T00:43:03.370Z,101617.63
2023-04-29T00:46:06.045Z,101615.50
2023-04-29T00:49:08.582Z,101617.47
2023-04-29T00:52:12.752Z,101620.59
2023-04-29T00:55:15.340Z,101627.63
2023-04-29T00:58:18.417Z,101632.38
2023-04-29T01:01:21.771Z,101624.34
2023-04-29T01:04:24.391Z,101637.47
2023-04-29T01:07:31.457Z,101627.50
2023-04-29T01:10:36.824Z,101634.22
2023-04-29T01:13:43.761Z,101640.91
2023-04-29T01:16:49.587Z,101629.78
2023-04-29T01:19:55.082Z,101649.28
2023-04-29T01:22:58.999Z,101640.09
2023-04-29T01:26:02.842Z,101635.34
2023-04-29T01:29:11.745Z,101638.47
2023-04-29T01:32:15.888Z,101636.00
2023-04-29T01:35:26.648Z,101647.13
2023-04-29T01:38:34.076Z,101646.00
2023-04-29T01:41:40.502Z,101640.75
2023-04-29T01:44:43.087Z,101626.19
2023-04-29T01:47:46.221Z,101650.09
2023-04-29T01:50:48.839Z,101652.56
2023-04-29T01:53:51.603Z,101649.47
2023-04-29T01:56:55.484Z,101643.88
2023-04-29T01:59:58.159Z,101643.88
2023-04-29T02:03:00.874Z,101653.84
2023-04-29T02:06:04.352Z,101657.44
2023-04-29T02:09:06.975Z,101657.44
2023-04-29T02:12:10.900Z,101655.97
2023-04-29T02:15:13.504Z,101663.84
2023-04-29T02:18:16.069Z,101669.41
2023-04-29T02:21:18.585Z,101668.59
2023-04-29T02:24:21.088Z,101676.63
2023-04-29T02:27:25.032Z,101670.22
2023-04-29T02:30:27.626Z,101676.28
2023-04-29T02:33:30.220Z,101678.25
2023-04-29T02:36:32.777Z,101681.03
2023-04-29T02:39:35.333Z,101687.75
2023-04-29T02:42:39.198Z,101699.38
2023-04-29T02:45:41.721Z,101696.59
2023-04-29T02:48:44.319Z,101697.41
2023-04-29T02:51:49.538Z,101709.38
2023-04-29T02:54:52.095Z,101710.19
2023-04-29T02:57:55.946Z,101702.16
2023-04-29T03:00:58.472Z,101711.66
2023-04-29T03:04:01.368Z,101713.28
2023-04-29T03:07:04.808Z,101713.28
2023-04-29T03:10:08.978Z,101715.75
2023-04-29T03:13:12.893Z,101716.56
2023-04-29T03:16:16.873Z,101718.19
2023-04-29T03:19:19.556Z,101721.78
2023-04-29T03:22:22.097Z,101718.19
2023-04-29T03:25:24.875Z,101718.19
2023-04-29T03:28:28.725Z,101721.78
2023-04-29T03:31:31.340Z,101727.03
2023-04-29T03:34:34.298Z,101728.66
2023-04-29T03:37:37.097Z,101734.25
2023-04-29T03:40:39.672Z,101728.66
2023-04-29T03:43:44.533Z,101736.53
2023-04-29T03:46:47.094Z,101738.16
2023-04-29T03:49:49.720Z,101739.81
2023-04-29T03:52:52.327Z,101743.09
2023-04-29T03:55:54.877Z,101740.31
2023-04-29T03:58:58.880Z,101743.88
2023-04-29T04:02:01.485Z,101748.66
2023-04-29T04:05:04.183Z,101754.22
2023-04-29T04:08:06.887Z,101748.66
2023-04-29T04:11:09.713Z,101751.44
2023-04-29T04:14:13.958Z,101752.59
2023-04-29T04:17:16.463Z,101755.38
2023-04-29T04:20:19.387Z,101758.16
2023-04-29T04:23:21.932Z,101764.53
2023-04-29T04:26:24.509Z,101766.50
2023-04-29T04:29:28.409Z,101770.44
2023-04-29T04:32:31.024Z,101770.94
2023-04-29T04:35:33.636Z,101776.50
2023-04-29T04:38:36.208Z,101773.38
2023-04-29T04:41:39.535Z,101782.06
2023-04-29T04:44:43.452Z,101782.06
2023-04-29T04:47:46.021Z,101790.06
2023-04-29T04:50:48.604Z,101794.81
2023-04-29T04:53:51.597Z,101794.16
2023-04-29T04:56:54.142Z,101806.13
2023-04-29T04:59:58.088Z,101814.16
2023-04-29T05:03:00.910Z,101822.00
2023-04-29T05:06:03.514Z,101822.00
2023-04-29T05:09:06.300Z,101826.75
2023-04-29T05:12:08.826Z,101834.28
2023-04-29T05:15:14.855Z,101832.31
2023-04-29T05:18:17.423Z,101834.78
2023-04-29T05:21:19.992Z,101836.44
2023-04-29T05:24:22.502Z,101840.34
2023-04-29T05:27:25.172Z,101835.63
2023-04-29T05:30:29.070Z,101847.56
2023-04-29T05:33:31.589Z,101845.94
2023-04-29T05:36:34.152Z,101847.56
2023-04-29T05:39:36.708Z,101858.72
2023-04-29T05:42:39.276Z,101857.06
2023-04-29T05:45:43.171Z,101860.31
2023-04-29T05:48:46.080Z,101856.72
2023-04-29T05:51:48.655Z,101868.34
2023-04-29T05:54:51.356Z,101881.13
2023-04-29T05:57:53.921Z,101887.53
2023-04-29T06:00:59.923Z,101890.81
2023-04-29T06:04:02.861Z,101896.03
2023-04-29T06:07:05.755Z,101905.69
2023-04-29T06:10:09.560Z,101910.13
2023-04-29T06:13:12.125Z,101906.69
2023-04-29T06:16:16.091Z,101918.31
2023-04-29T06:19:19.219Z,101921.59
2023-04-29T06:22:21.768Z,101913.72
2023-04-29T06:25:24.346Z,101923.06
2023-04-29T06:28:27.008Z,101928.47
2023-04-29T06:31:30.977Z,101923.56
2023-04-29T06:34:33.737Z,101921.91
2023-04-29T06:37:37.938Z,101919.91
2023-04-29T06:40:40.811Z,101932.72
2023-04-29T06:43:43.696Z,101938.25
2023-04-29T06:46:47.786Z,101941.31
2023-04-29T06:49:50.806Z,101944.41
2023-04-29T06:52:54.091Z,101951.06
2023-04-29T06:55:56.640Z,101961.66
2023-04-29T06:58:59.161Z,101966.34
2023-04-29T07:02:02.977Z,101978.91
2023-04-29T07:05:06.294Z,101982.75
2023-04-29T07:08:09.984Z,101984.50
2023-04-29T07:11:12.892Z,101985.72
2023-04-29T07:14:16.015Z,101990.22
2023-04-29T07:17:20.648Z,101996.81
2023-04-29T07:20:23.310Z,101994.09
2023-04-29T07:23:26.169Z,102002.53
2023-04-29T07:26:28.730Z,102005.13
2023-04-29T07:29:31.294Z,102008.66
2023-04-29T07:32:35.541Z,102004.09
2023-04-29T07:35:38.155Z,102017.75
2023-04-29T07:38:40.701Z,102013.56
2023-04-29T07:41:43.284Z,102022.41
2023-04-29T07:44:46.188Z,102037.59
2023-04-29T07:47:50.144Z,102026.41
2023-04-29T07:50:52.754Z,102026.84
2023-04-29T07:53:55.302Z,102022.69
2023-04-29T07:56:58.913Z,102027.16
2023-04-29T08:00:01.487Z,102027.97
2023-04-29T08:03:05.545Z,102024.47
2023-04-29T08:06:08.324Z,102028.22
2023-04-29T08:09:11.326Z,102023.56
2023-04-29T08:12:13.905Z,102029.97
2023-04-29T08:15:16.675Z,102026.13
2023-04-29T08:18:21.177Z,102030.47
2023-04-29T08:21:23.744Z,102031.84
2023-04-29T08:24:26.552Z,102038.03
2023-04-29T08:27:29.109Z,102038.91
2023-04-29T08:30:31.666Z,102042.66
2023-04-29T08:33:35.883Z,102040.56
2023-04-29T08:36:38.624Z,102047.31
2023-04-29T08:39:43.295Z,102054.69
2023-04-29T08:42:47.437Z,102055.16
2023-04-29T08:45:51.479Z,102049.63
2023-04-29T08:48:56.388Z,102049.47
2023-04-29T08:51:58.977Z,102051.91
2023-04-29T08:55:02.493Z,102062.66
2023-04-29T08:58:05.088Z,102046.50
2023-04-29T09:01:09.164Z,102056.50
2023-04-29T09:04:24.731Z,102059.47
2023-04-29T09:07:27.298Z,102069.47
2023-04-29T09:10:29.857Z,102063.66
2023-04-29T09:13:32.934Z,102068.72
2023-04-29T09:16:37.351Z,102070.97
2023-04-29T09:19:41.298Z,102056.94
2023-04-29T09:22:48.498Z,102069.34
2023-04-29T09:25:56.281Z,102070.44
2023-04-29T09:29:07.777Z,102073.94
2023-04-29T09:32:20.255Z,102081.91
2023-04-29T09:35:25.537Z,102085.34
2023-04-29T09:38:28.176Z,102086.84
2023-04-29T09:41:30.734Z,102079.34
2023-04-29T09:44:35.788Z,102082.59
2023-04-29T09:47:38.471Z,102086.84
2023-04-29T09:50:43.637Z,102084.50
2023-04-29T09:53:46.507Z,102095.28
2023-04-29T09:56:49.924Z,102089.66
2023-04-29T09:59:52.469Z,102095.69
2023-04-29T10:02:55.372Z,102099.09
2023-04-29T10:05:59.568Z,102103.91
2023-04-29T10:09:02.123Z,102092.25
2023-04-29T10:12:04.964Z,102111.00
2023-04-29T10:15:10.862Z,102109.00
2023-04-29T10:18:15.511Z,102106.94
2023-04-29T10:21:19.429Z,102114.53
2023-04-29T10:24:21.997Z,102113.59
2023-04-29T10:27:25.393Z,102117.75
2023-04-29T10:30:27.974Z,102106.50
2023-04-29T10:33:32.238Z,102112.59
2023-04-29T10:36:36.172Z,102111.00
2023-04-29T10:39:43.600Z,102108.78
2023-04-29T10:42:47.060Z,102103.16
2023-04-29T10:45:49.608Z,102099.97
2023-04-29T10:48:55.396Z,102101.16
2023-04-29T10:52:04.339Z,102101.84
2023-04-29T10:55:07.943Z,102104.94
2023-04-29T10:58:45.723Z,102099.66
2023-04-29T11:01:49.523Z,102099.75
2023-04-29T11:05:12.184Z,102106.06
2023-04-29T11:08:22.934Z,102111.38
2023-04-29T11:11:27.119Z,102111.56
2023-04-29T11:14:37.487Z,102103.69
2023-04-29T11:17:40.510Z,102114.28
2023-04-29T11:21:13.816Z,102110.63
2023-04-29T11:24:17.871Z,102116.19
2023-04-29T11:27:22.772Z,102111.81
2023-04-29T11:30:25.703Z,102107.81
2023-04-29T11:33:28.666Z,102105.97
2023-04-29T11:36:32.738Z,102114.03
2023-04-29T11:39:36.796Z,102110.72
2023-04-29T11:42:42.335Z,102108.16
2023-04-29T11:45:46.230Z,102111.66
2023-04-29T11:48:48.889Z,102117.44
2023-04-29T11:51:51.814Z,102115.91
2023-04-29T11:54:55.826Z,102110.00
2023-04-29T11:57:58.439Z,102120.59
2023-04-29T12:01:00.953Z,102119.50
2023-04-29T12:04:05.876Z,102117.13
2023-04-29T12:07:10.894Z,102121.28
2023-04-29T12:13:17.693Z,102113.16
2023-04-29T12:16:20.464Z,102117.56
2023-04-29T12:19:23.656Z,102126.84
2023-04-29T12:22:32.204Z,102126.06
2023-04-29T12:25:36.091Z,102126.94
2023-04-29T12:28:38.812Z,102117.31
2023-04-29T12:31:41.742Z,102133.53
2023-04-29T12:34:45.638Z,102125.53
2023-04-29T12:37:51.641Z,102120.34
2023-04-29T12:40:55.845Z,102130.63
2023-04-29T12:43:58.344Z,102139.94
2023-04-29T12:47:08.944Z,102137.97
2023-04-29T12:50:11.869Z,102149.34
2023-04-29T12:53:14.360Z,102145.31
2023-04-29T12:56:18.264Z,102144.88
2023-04-29T12:59:21.196Z,102147.31
2023-04-29T13:02:23.905Z,102143.69
2023-04-29T13:05:26.488Z,102148.56
2023-04-29T13:08:29.064Z,102143.72
2023-04-29T13:11:34.872Z,102141.28
2023-04-29T13:14:37.574Z,102142.09
2023-04-29T13:17:40.243Z,102154.25
2023-04-29T13:20:42.844Z,102141.28
2023-04-29T13:23:46.268Z,102148.97
2023-04-29T13:26:52.411Z,102143.72
2023-04-29T13:29:56.155Z,102148.56
2023-04-29T13:33:04.385Z,102160.28
2023-04-29T13:36:14.105Z,102150.13
2023-04-29T13:39:17.472Z,102151.78
2023-04-29T13:42:25.493Z,102153.81
2023-04-29T13:45:29.380Z,102156.25
2023-04-29T13:49:08.179Z,102158.31
2023-04-29T13:52:37.576Z,102156.31
2023-04-29T13:56:01.609Z,102160.72
2023-04-29T13:59:30.755Z,102165.13
2023-04-29T14:05:10.643Z,102175.13
2023-04-29T14:08:14.037Z,102175.00
2023-04-29T14:11:16.924Z,102179.03
2023-04-29T14:14:20.803Z,102178.66
2023-04-29T14:17:23.381Z,102179.84
2023-04-29T14:20:25.932Z,102180.59
2023-04-29T14:23:28.507Z,102182.16
2023-04-29T14:26:31.178Z,102179.69
2023-04-29T14:29:35.159Z,102184.50
2023-04-29T14:32:37.765Z,102181.22
2023-04-29T14:35:41.017Z,102182.06
2023-04-29T14:38:43.604Z,102187.69
2023-04-29T14:41:46.727Z,102177.91
2023-04-29T14:44:51.528Z,102183.91
2023-04-29T14:47:54.230Z,102179.41
2023-04-29T14:50:56.833Z,102181.78
2023-04-29T14:53:59.379Z,102184.94
2023-04-29T14:57:02.111Z,102188.88
2023-04-29T15:00:08.237Z,102196.06
2023-04-29T15:03:10.933Z,102191.97
2023-04-29T15:06:13.969Z,102194.31
2023-04-29T15:09:16.633Z,102199.16
2023-04-29T15:12:21.024Z,102193.03
2023-04-29T15:15:24.976Z,102193.03
2023-04-29T15:18:27.506Z,102191.41
2023-04-29T15:21:30.136Z,102199.78
2023-04-29T15:24:32.694Z,102200.44
2023-04-29T15:27:35.575Z,102200.75
2023-04-29T15:30:39.508Z,102200.25
2023-04-29T15:33:42.196Z,102191.34
2023-04-29T15:36:44.766Z,102192.91
2023-04-29T15:39:47.272Z,102197.31
2023-04-29T15:42:49.798Z,102204.91
2023-04-29T15:45:53.787Z,102199.16
2023-04-29T15:48:56.420Z,102194.97
2023-04-29T15:51:58.936Z,102204.16
2023-04-29T15:55:01.435Z,102209.34
2023-04-29T15:58:03.953Z,102207.31
2023-04-29T16:01:07.918Z,102215.75
2023-04-29T16:04:10.688Z,102212.94
2023-04-29T16:07:13.336Z,102214.13
2023-04-29T16:10:15.837Z,102220.56
2023-04-29T16:13:18.377Z,102224.56
2023-04-29T16:16:23.334Z,102226.47
2023-04-29T16:19:25.955Z,102231.25
2023-04-29T16:22:28.855Z,102244.84
2023-04-29T16:25:31.425Z,102240.34
2023-04-29T16:28:34.011Z,102238.56
2023-04-29T16:31:38.170Z,102240.06
2023-04-29T16:34:41.731Z,102242.31
2023-04-29T16:37:44.293Z,102247.81
2023-04-29T16:40:48.197Z,102236.84
2023-04-29T16:43:52.039Z,102247.25
2023-04-29T16:46:55.966Z,102249.19
2023-04-29T16:49:58.486Z,102245.31
2023-04-29T16:53:01.144Z,102239.81
2023-04-29T16:56:03.796Z,102243.69
2023-04-29T16:59:06.464Z,102241.06
2023-04-29T17:02:10.309Z,102235.13
2023-04-29T17:05:12.876Z,102242.88
2023-04-29T17:08:15.460Z,102229.03
2023-04-29T17:11:18.264Z,102228.31
2023-04-29T17:14:20.784Z,102231.81
2023-04-29T17:17:24.757Z,102234.19
2023-04-29T17:20:27.348Z,102235.97
2023-04-29T17:23:30.517Z,102239.53
2023-04-29T17:26:33.292Z,102245.03
2023-04-29T17:29:35.818Z,102226.59
2023-04-29T17:32:39.875Z,102238.75
2023-04-29T17:35:42.399Z,102235.31
2023-04-29T17:38:44.964Z,102238.03
2023-04-29T17:41:47.536Z,102235.13
2023-04-29T17:44:50.127Z,102235.84
2023-04-29T17:47:54.054Z,102237.38
2023-04-29T17:50:56.607Z,102245.81
2023-04-29T17:53:59.308Z,102239.66
2023-04-29T17:57:03.211Z,102240.97
2023-04-29T18:00:07.280Z,102242.03
2023-04-29T18:03:11.236Z,102239.16
2023-04-29T18:06:13.897Z,102243.00
2023-04-29T18:09:17.774Z,102236.47
2023-04-29T18:12:20.661Z,102244.34
2023-04-29T18:15:23.228Z,102244.94
2023-04-29T18:18:27.283Z,102241.44
2023-04-29T18:21:30.179Z,102246.13
2023-04-29T18:24:32.728Z,102243.38
2023-04-29T18:27:35.317Z,102241.97
2023-04-29T18:30:37.852Z,102249.34
2023-04-29T18:33:41.963Z,102248.78
2023-04-29T18:36:44.553Z,102253.91
2023-04-29T18:39:47.128Z,102256.28
2023-04-29T18:42:49.681Z,102253.00
2023-04-29T18:45:52.460Z,102252.53
2023-04-29T18:48:56.345Z,102254.88
2023-04-29T18:52:01.093Z,102240.16
2023-04-29T18:55:04.358Z,102252.91
2023-04-29T18:58:06.887Z,102262.03
2023-04-29T19:01:09.811Z,102256.31
2023-04-29T19:04:14.019Z,102260.97
2023-04-29T19:07:16.621Z,102262.38
2023-04-29T19:10:19.254Z,102275.81
2023-04-29T19:13:21.995Z,102278.38
2023-04-29T19:16:24.888Z,102280.59
2023-04-29T19:19:30.136Z,102281.94
2023-04-29T19:22:32.664Z,102286.16
2023-04-29T19:25:35.258Z,102308.47
2023-04-29T19:28:38.071Z,102301.06
2023-04-29T19:31:40.664Z,102302.47
2023-04-29T19:34:44.568Z,102303.03
2023-04-29T19:37:47.137Z,102297.97
2023-04-29T19:40:49.866Z,102307.78
2023-04-29T19:43:52.355Z,102302.38
2023-04-29T19:46:55.289Z,102307.06
2023-04-29T19:49:59.394Z,102302.50
2023-04-29T19:53:01.918Z,102303.50
2023-04-29T19:56:04.610Z,102314.44
2023-04-29T19:59:07.169Z,102310.22
2023-04-29T20:02:09.836Z,102315.19
2023-04-29T20:05:13.803Z,102320.19
2023-04-29T20:08:16.375Z,102324.84
2023-04-29T20:11:18.988Z,102320.94
2023-04-29T20:14:21.568Z,102321.38
2023-04-29T20:17:24.287Z,102313.03
2023-04-29T20:20:28.537Z,102321.28
2023-04-29T20:23:31.758Z,102327.75
2023-04-29T20:26:34.304Z,102330.47
2023-04-29T20:29:36.867Z,102329.19
2023-04-29T20:32:39.486Z,102320.19
2023-04-29T20:35:43.419Z,102334.50
2023-04-29T20:38:48.518Z,102331.19
2023-04-29T20:41:51.554Z,102346.69
2023-04-29T20:44:54.204Z,102343.72
2023-04-29T20:47:56.768Z,102342.13
2023-04-29T20:51:00.794Z,102346.06
2023-04-29T20:54:03.424Z,102346.41
2023-04-29T20:57:06.078Z,102346.25
2023-04-29T21:00:09.818Z,102341.81
2023-04-29T21:03:12.404Z,102347.25
2023-04-29T21:06:17.069Z,102347.09
2023-04-29T21:09:19.864Z,102344.94
2023-04-29T21:12:22.441Z,102349.56
2023-04-29T21:15:26.652Z,102344.00
2023-04-29T21:18:29.256Z,102345.13
2023-04-29T21:21:33.161Z,102337.06
2023-04-29T21:24:35.749Z,102345.31
2023-04-29T21:27:38.333Z,102340.38
2023-04-29T21:30:40.944Z,102345.50
2023-04-29T21:33:44.226Z,102346.16
2023-04-29T21:36:48.187Z,102343.03
2023-04-29T21:39:51.325Z,102349.97
2023-04-29T21:42:55.149Z,102353.63
2023-04-29T21:45:57.725Z,102356.09
2023-04-29T21:49:00.490Z,102355.41
2023-04-29T21:52:04.581Z,102361.97
2023-04-29T21:55:07.612Z,102353.59
2023-04-29T21:58:10.910Z,102359.66
2023-04-29T22:01:27.217Z,102353.59
2023-04-29T22:04:29.934Z,102364.59
2023-04-29T22:07:33.808Z,102358.66
2023-04-29T22:10:39.960Z,102361.31
2023-04-29T22:13:45.051Z,102360.47
2023-04-29T22:16:47.732Z,102355.34
2023-04-29T22:19:50.376Z,102367.19
2023-04-29T22:22:54.316Z,102363.88
2023-04-29T22:25:56.876Z,102365.38
2023-04-29T22:28:59.410Z,102368.50
2023-04-29T22:32:02.076Z,102367.47
2023-04-29T22:35:05.046Z,102365.03
2023-04-29T22:38:09.517Z,102362.56
2023-04-29T22:41:12.456Z,102364.00
2023-04-29T22:44:15.333Z,102361.56
2023-04-29T22:47:17.904Z,102354.97
2023-04-29T22:50:20.604Z,102370.06
2023-04-29T22:53:24.675Z,102363.50
2023-04-29T22:56:28.674Z,102367.44
2023-04-29T22:59:31.211Z,102363.16
2023-04-29T23:02:33.759Z,102358.03
2023-04-29T23:05:36.288Z,102363.25
2023-04-29T23:08:40.189Z,102368.97
2023-04-29T23:11:43.348Z,102373.88
2023-04-29T23:14:45.854Z,102371.75
2023-04-29T23:17:48.502Z,102379.09
2023-04-29T23:20:51.376Z,102378.94
2023-04-29T23:23:55.618Z,102381.50
2023-04-29T23:26:58.164Z,102377.91
2023-04-29T23:30:00.701Z,102380.44
2023-04-29T23:33:03.263Z,102388.25
2023-04-29T23:36:06.677Z,102381.66
2023-04-29T23:39:10.530Z,102385.59
2023-04-29T23:42:13.337Z,102392.31
2023-04-29T23:45:15.993Z,102379.50
2023-04-29T23:48:18.519Z,102385.66
2023-04-29T23:51:21.048Z,102378.84
2023-04-29T23:54:24.918Z,102383.81
2023-04-29T23:57:27.448Z,102391.47
